sensor_id;sensor_type;location;lat;lon;timestamp;P1;durP1;ratioP1;P2;durP2;ratioP2
5704;SDS011;2877;48.238;11.160;2023-08-20T00:00:13;8.03;;;5.20;;
5704;SDS011;2877;48.238;11.160;2023-08-20T00:02:42;14.63;;;5.00;;
5704;SDS011;2877;48.238;11.160;2023-08-20T00:05:08;10.20;;;5.07;;
5704;SDS011;2877;48.238;11.160;2023-08-20T00:07:34;9.10;;;5.27;;
5704;SDS011;2877;48.238;11.160;2023-08-20T00:10:00;9.23;;;5.90;;
5704;SDS011;2877;48.238;11.160;2023-08-20T00:12:29;12.53;;;5.33;;
5704;SDS011;2877;48.238;11.160;2023-08-20T00:14:58;11.43;;;5.90;;
5704;SDS011;2877;48.238;11.160;2023-08-20T00:17:34;14.17;;;7.47;;
5704;SDS011;2877;48.238;11.160;2023-08-20T00:20:02;12.37;;;8.20;;
5704;SDS011;2877;48.238;11.160;2023-08-20T00:22:40;11.10;;;6.90;;
5704;SDS011;2877;48.238;11.160;2023-08-20T00:25:11;9.80;;;6.57;;
5704;SDS011;2877;48.238;11.160;2023-08-20T00:27:38;11.03;;;4.73;;
5704;SDS011;2877;48.238;11.160;2023-08-20T00:30:04;8.73;;;5.00;;
5704;SDS011;2877;48.238;11.160;2023-08-20T00:32:30;8.77;;;4.57;;
5704;SDS011;2877;48.238;11.160;2023-08-20T00:34:56;9.33;;;4.30;;
5704;SDS011;2877;48.238;11.160;2023-08-20T00:37:21;9.73;;;4.23;;
5704;SDS011;2877;48.238;11.160;2023-08-20T00:39:47;10.47;;;4.30;;
5704;SDS011;2877;48.238;11.160;2023-08-20T00:42:13;8.60;;;4.67;;
5704;SDS011;2877;48.238;11.160;2023-08-20T00:44:40;13.97;;;4.93;;
5704;SDS011;2877;48.238;11.160;2023-08-20T00:47:12;6.90;;;4.70;;
5704;SDS011;2877;48.238;11.160;2023-08-20T00:49:38;6.90;;;4.80;;
5704;SDS011;2877;48.238;11.160;2023-08-20T00:52:06;7.50;;;5.03;;
5704;SDS011;2877;48.238;11.160;2023-08-20T00:54:33;8.00;;;4.90;;
5704;SDS011;2877;48.238;11.160;2023-08-20T00:56:59;5.67;;;4.40;;
5704;SDS011;2877;48.238;11.160;2023-08-20T00:59:26;4.90;;;4.40;;
5704;SDS011;2877;48.238;11.160;2023-08-20T01:01:53;8.33;;;4.70;;
5704;SDS011;2877;48.238;11.160;2023-08-20T01:04:19;8.73;;;4.80;;
5704;SDS011;2877;48.238;11.160;2023-08-20T01:06:53;10.90;;;4.80;;
5704;SDS011;2877;48.238;11.160;2023-08-20T01:11:47;10.60;;;5.27;;
5704;SDS011;2877;48.238;11.160;2023-08-20T01:14:20;9.20;;;5.17;;
5704;SDS011;2877;48.238;11.160;2023-08-20T01:16:46;9.77;;;4.90;;
5704;SDS011;2877;48.238;11.160;2023-08-20T01:19:14;11.40;;;4.10;;
5704;SDS011;2877;48.238;11.160;2023-08-20T01:21:56;10.60;;;4.27;;
5704;SDS011;2877;48.238;11.160;2023-08-20T01:29:57;5.17;;;3.90;;
5704;SDS011;2877;48.238;11.160;2023-08-20T01:32:24;9.10;;;4.53;;
5704;SDS011;2877;48.238;11.160;2023-08-20T01:34:51;4.40;;;3.80;;
5704;SDS011;2877;48.238;11.160;2023-08-20T01:37:18;7.27;;;4.07;;
5704;SDS011;2877;48.238;11.160;2023-08-20T01:39:43;5.73;;;4.40;;
5704;SDS011;2877;48.238;11.160;2023-08-20T01:42:09;7.93;;;4.47;;
5704;SDS011;2877;48.238;11.160;2023-08-20T01:44:34;5.30;;;4.43;;
5704;SDS011;2877;48.238;11.160;2023-08-20T01:47:00;11.10;;;4.70;;
5704;SDS011;2877;48.238;11.160;2023-08-20T01:49:25;11.53;;;4.87;;
5704;SDS011;2877;48.238;11.160;2023-08-20T01:51:51;5.80;;;4.13;;
5704;SDS011;2877;48.238;11.160;2023-08-20T01:54:16;8.57;;;4.73;;
5704;SDS011;2877;48.238;11.160;2023-08-20T01:56:42;7.20;;;4.77;;
5704;SDS011;2877;48.238;11.160;2023-08-20T01:59:08;5.83;;;3.93;;
5704;SDS011;2877;48.238;11.160;2023-08-20T02:01:33;7.80;;;4.77;;
5704;SDS011;2877;48.238;11.160;2023-08-20T02:03:59;6.80;;;4.30;;
5704;SDS011;2877;48.238;11.160;2023-08-20T02:06:25;7.60;;;4.80;;
5704;SDS011;2877;48.238;11.160;2023-08-20T02:08:50;7.40;;;4.10;;
5704;SDS011;2877;48.238;11.160;2023-08-20T02:11:16;8.10;;;4.40;;
5704;SDS011;2877;48.238;11.160;2023-08-20T02:13:41;5.00;;;4.30;;
5704;SDS011;2877;48.238;11.160;2023-08-20T02:16:07;7.17;;;4.10;;
5704;SDS011;2877;48.238;11.160;2023-08-20T02:18:32;6.33;;;4.60;;
5704;SDS011;2877;48.238;11.160;2023-08-20T02:20:58;11.97;;;4.60;;
5704;SDS011;2877;48.238;11.160;2023-08-20T02:23:23;15.93;;;5.47;;
5704;SDS011;2877;48.238;11.160;2023-08-20T02:25:49;4.77;;;4.30;;
5704;SDS011;2877;48.238;11.160;2023-08-20T02:28:14;6.83;;;4.30;;
5704;SDS011;2877;48.238;11.160;2023-08-20T02:30:41;10.27;;;4.80;;
5704;SDS011;2877;48.238;11.160;2023-08-20T02:33:10;6.57;;;5.07;;
5704;SDS011;2877;48.238;11.160;2023-08-20T02:35:36;10.77;;;5.80;;
5704;SDS011;2877;48.238;11.160;2023-08-20T02:38:03;7.57;;;5.10;;
5704;SDS011;2877;48.238;11.160;2023-08-20T02:40:29;6.73;;;5.57;;
5704;SDS011;2877;48.238;11.160;2023-08-20T02:42:55;8.93;;;5.93;;
5704;SDS011;2877;48.238;11.160;2023-08-20T02:45:21;8.13;;;5.57;;
5704;SDS011;2877;48.238;11.160;2023-08-20T02:47:46;5.87;;;5.33;;
5704;SDS011;2877;48.238;11.160;2023-08-20T02:50:12;11.73;;;6.50;;
5704;SDS011;2877;48.238;11.160;2023-08-20T02:52:38;12.80;;;5.87;;
5704;SDS011;2877;48.238;11.160;2023-08-20T02:55:03;14.80;;;6.00;;
5704;SDS011;2877;48.238;11.160;2023-08-20T02:57:32;6.50;;;5.80;;
5704;SDS011;2877;48.238;11.160;2023-08-20T02:59:57;8.67;;;5.90;;
5704;SDS011;2877;48.238;11.160;2023-08-20T03:02:23;10.50;;;5.20;;
5704;SDS011;2877;48.238;11.160;2023-08-20T03:04:48;7.43;;;5.87;;
5704;SDS011;2877;48.238;11.160;2023-08-20T03:07:14;8.20;;;4.67;;
5704;SDS011;2877;48.238;11.160;2023-08-20T03:09:39;6.30;;;5.10;;
5704;SDS011;2877;48.238;11.160;2023-08-20T03:12:05;14.70;;;5.50;;
5704;SDS011;2877;48.238;11.160;2023-08-20T03:14:31;8.10;;;5.23;;
5704;SDS011;2877;48.238;11.160;2023-08-20T03:16:56;12.80;;;5.40;;
5704;SDS011;2877;48.238;11.160;2023-08-20T03:19:22;14.13;;;5.47;;
5704;SDS011;2877;48.238;11.160;2023-08-20T03:21:47;7.13;;;5.43;;
5704;SDS011;2877;48.238;11.160;2023-08-20T03:24:13;8.47;;;5.80;;
5704;SDS011;2877;48.238;11.160;2023-08-20T03:26:38;8.53;;;5.93;;
5704;SDS011;2877;48.238;11.160;2023-08-20T03:29:04;16.33;;;5.83;;
5704;SDS011;2877;48.238;11.160;2023-08-20T03:31:30;7.50;;;5.77;;
5704;SDS011;2877;48.238;11.160;2023-08-20T03:33:56;9.13;;;5.63;;
5704;SDS011;2877;48.238;11.160;2023-08-20T03:36:21;10.43;;;6.37;;
5704;SDS011;2877;48.238;11.160;2023-08-20T03:38:47;9.33;;;5.27;;
5704;SDS011;2877;48.238;11.160;2023-08-20T03:41:12;10.33;;;5.53;;
5704;SDS011;2877;48.238;11.160;2023-08-20T03:43:38;6.70;;;5.60;;
5704;SDS011;2877;48.238;11.160;2023-08-20T03:46:03;6.83;;;4.93;;
5704;SDS011;2877;48.238;11.160;2023-08-20T03:48:29;13.13;;;6.00;;
5704;SDS011;2877;48.238;11.160;2023-08-20T03:50:55;8.10;;;5.20;;
5704;SDS011;2877;48.238;11.160;2023-08-20T03:53:21;9.27;;;5.70;;
5704;SDS011;2877;48.238;11.160;2023-08-20T03:55:47;7.70;;;5.20;;
5704;SDS011;2877;48.238;11.160;2023-08-20T03:58:16;9.47;;;5.60;;
5704;SDS011;2877;48.238;11.160;2023-08-20T04:00:42;11.70;;;5.13;;
5704;SDS011;2877;48.238;11.160;2023-08-20T04:03:08;11.33;;;5.60;;
5704;SDS011;2877;48.238;11.160;2023-08-20T04:05:37;7.33;;;4.90;;
5704;SDS011;2877;48.238;11.160;2023-08-20T04:08:03;5.97;;;5.07;;
5704;SDS011;2877;48.238;11.160;2023-08-20T04:10:30;6.90;;;5.30;;
5704;SDS011;2877;48.238;11.160;2023-08-20T04:12:56;7.63;;;5.30;;
5704;SDS011;2877;48.238;11.160;2023-08-20T04:15:21;8.23;;;4.80;;
5704;SDS011;2877;48.238;11.160;2023-08-20T04:17:47;7.07;;;5.37;;
5704;SDS011;2877;48.238;11.160;2023-08-20T04:20:13;7.20;;;5.30;;
5704;SDS011;2877;48.238;11.160;2023-08-20T04:22:39;7.80;;;5.23;;
5704;SDS011;2877;48.238;11.160;2023-08-20T04:25:05;8.23;;;5.63;;
5704;SDS011;2877;48.238;11.160;2023-08-20T04:27:31;9.93;;;5.20;;
5704;SDS011;2877;48.238;11.160;2023-08-20T04:29:57;6.70;;;5.13;;
5704;SDS011;2877;48.238;11.160;2023-08-20T04:32:22;16.10;;;5.40;;
5704;SDS011;2877;48.238;11.160;2023-08-20T04:34:48;6.90;;;5.67;;
5704;SDS011;2877;48.238;11.160;2023-08-20T04:37:16;5.70;;;5.10;;
5704;SDS011;2877;48.238;11.160;2023-08-20T04:39:43;8.23;;;5.40;;
5704;SDS011;2877;48.238;11.160;2023-08-20T04:42:09;10.67;;;5.93;;
5704;SDS011;2877;48.238;11.160;2023-08-20T04:44:35;12.67;;;6.27;;
5704;SDS011;2877;48.238;11.160;2023-08-20T04:47:00;7.13;;;5.90;;
5704;SDS011;2877;48.238;11.160;2023-08-20T04:49:26;6.57;;;5.27;;
5704;SDS011;2877;48.238;11.160;2023-08-20T04:51:53;9.33;;;4.93;;
5704;SDS011;2877;48.238;11.160;2023-08-20T04:54:19;13.93;;;6.40;;
5704;SDS011;2877;48.238;11.160;2023-08-20T04:56:44;10.77;;;6.37;;
5704;SDS011;2877;48.238;11.160;2023-08-20T04:59:10;12.20;;;6.00;;
5704;SDS011;2877;48.238;11.160;2023-08-20T05:01:36;10.17;;;6.37;;
5704;SDS011;2877;48.238;11.160;2023-08-20T05:04:03;14.40;;;6.00;;
5704;SDS011;2877;48.238;11.160;2023-08-20T05:06:28;9.50;;;5.20;;
5704;SDS011;2877;48.238;11.160;2023-08-20T05:08:54;9.53;;;5.97;;
5704;SDS011;2877;48.238;11.160;2023-08-20T05:11:20;7.17;;;4.93;;
5704;SDS011;2877;48.238;11.160;2023-08-20T05:13:47;6.60;;;4.80;;
5704;SDS011;2877;48.238;11.160;2023-08-20T05:16:14;6.83;;;5.03;;
5704;SDS011;2877;48.238;11.160;2023-08-20T05:18:40;12.83;;;5.27;;
5704;SDS011;2877;48.238;11.160;2023-08-20T05:21:06;15.23;;;5.43;;
5704;SDS011;2877;48.238;11.160;2023-08-20T05:23:31;10.30;;;5.10;;
5704;SDS011;2877;48.238;11.160;2023-08-20T05:25:57;11.50;;;5.00;;
5704;SDS011;2877;48.238;11.160;2023-08-20T05:28:22;6.37;;;4.97;;
5704;SDS011;2877;48.238;11.160;2023-08-20T05:30:55;7.40;;;4.60;;
5704;SDS011;2877;48.238;11.160;2023-08-20T05:33:21;7.90;;;5.53;;
5704;SDS011;2877;48.238;11.160;2023-08-20T05:35:47;6.57;;;4.83;;
5704;SDS011;2877;48.238;11.160;2023-08-20T05:38:13;7.73;;;4.47;;
5704;SDS011;2877;48.238;11.160;2023-08-20T05:40:39;8.07;;;5.30;;
5704;SDS011;2877;48.238;11.160;2023-08-20T05:43:04;8.80;;;5.33;;
5704;SDS011;2877;48.238;11.160;2023-08-20T05:45:30;9.73;;;5.17;;
5704;SDS011;2877;48.238;11.160;2023-08-20T05:47:55;6.83;;;5.03;;
5704;SDS011;2877;48.238;11.160;2023-08-20T05:50:21;13.07;;;5.57;;
5704;SDS011;2877;48.238;11.160;2023-08-20T05:52:46;14.13;;;5.70;;
5704;SDS011;2877;48.238;11.160;2023-08-20T05:55:13;8.80;;;5.10;;
5704;SDS011;2877;48.238;11.160;2023-08-20T05:57:39;16.97;;;5.10;;
5704;SDS011;2877;48.238;11.160;2023-08-20T06:00:06;8.20;;;5.40;;
5704;SDS011;2877;48.238;11.160;2023-08-20T06:02:33;10.20;;;5.57;;
5704;SDS011;2877;48.238;11.160;2023-08-20T06:04:59;7.30;;;5.20;;
5704;SDS011;2877;48.238;11.160;2023-08-20T06:07:24;7.43;;;4.33;;
5704;SDS011;2877;48.238;11.160;2023-08-20T06:09:50;6.70;;;4.77;;
5704;SDS011;2877;48.238;11.160;2023-08-20T06:12:18;6.40;;;5.80;;
5704;SDS011;2877;48.238;11.160;2023-08-20T06:14:44;19.93;;;5.00;;
5704;SDS011;2877;48.238;11.160;2023-08-20T06:17:10;5.17;;;4.67;;
5704;SDS011;2877;48.238;11.160;2023-08-20T06:19:35;7.73;;;5.00;;
5704;SDS011;2877;48.238;11.160;2023-08-20T06:22:01;11.73;;;4.80;;
5704;SDS011;2877;48.238;11.160;2023-08-20T06:24:27;6.23;;;5.00;;
5704;SDS011;2877;48.238;11.160;2023-08-20T06:26:53;8.47;;;5.67;;
5704;SDS011;2877;48.238;11.160;2023-08-20T06:29:18;13.27;;;4.87;;
5704;SDS011;2877;48.238;11.160;2023-08-20T06:31:46;9.73;;;4.63;;
5704;SDS011;2877;48.238;11.160;2023-08-20T06:34:13;11.87;;;4.63;;
5704;SDS011;2877;48.238;11.160;2023-08-20T06:36:38;7.70;;;4.57;;
5704;SDS011;2877;48.238;11.160;2023-08-20T06:39:04;6.50;;;4.67;;
5704;SDS011;2877;48.238;11.160;2023-08-20T06:41:30;12.47;;;5.00;;
5704;SDS011;2877;48.238;11.160;2023-08-20T06:43:55;12.80;;;5.10;;
5704;SDS011;2877;48.238;11.160;2023-08-20T06:46:21;5.50;;;4.57;;
5704;SDS011;2877;48.238;11.160;2023-08-20T06:48:47;9.70;;;4.57;;
5704;SDS011;2877;48.238;11.160;2023-08-20T06:51:15;8.77;;;5.40;;
5704;SDS011;2877;48.238;11.160;2023-08-20T06:53:45;8.77;;;5.20;;
5704;SDS011;2877;48.238;11.160;2023-08-20T06:56:10;8.77;;;4.77;;
5704;SDS011;2877;48.238;11.160;2023-08-20T06:58:36;6.80;;;4.73;;
5704;SDS011;2877;48.238;11.160;2023-08-20T07:01:05;15.63;;;5.00;;
5704;SDS011;2877;48.238;11.160;2023-08-20T07:03:37;5.93;;;4.43;;
5704;SDS011;2877;48.238;11.160;2023-08-20T07:06:03;9.93;;;4.93;;
5704;SDS011;2877;48.238;11.160;2023-08-20T07:08:29;8.70;;;5.20;;
5704;SDS011;2877;48.238;11.160;2023-08-20T07:10:54;7.03;;;4.93;;
5704;SDS011;2877;48.238;11.160;2023-08-20T07:13:20;6.13;;;4.60;;
5704;SDS011;2877;48.238;11.160;2023-08-20T07:15:46;9.43;;;4.40;;
5704;SDS011;2877;48.238;11.160;2023-08-20T07:18:11;8.50;;;4.70;;
5704;SDS011;2877;48.238;11.160;2023-08-20T07:20:38;7.93;;;4.83;;
5704;SDS011;2877;48.238;11.160;2023-08-20T07:23:04;9.20;;;4.80;;
5704;SDS011;2877;48.238;11.160;2023-08-20T07:25:29;9.50;;;4.43;;
5704;SDS011;2877;48.238;11.160;2023-08-20T07:27:55;9.10;;;5.37;;
5704;SDS011;2877;48.238;11.160;2023-08-20T07:30:24;6.93;;;4.60;;
5704;SDS011;2877;48.238;11.160;2023-08-20T07:32:50;8.70;;;5.03;;
5704;SDS011;2877;48.238;11.160;2023-08-20T07:35:16;6.70;;;4.63;;
5704;SDS011;2877;48.238;11.160;2023-08-20T07:37:41;9.17;;;5.00;;
5704;SDS011;2877;48.238;11.160;2023-08-20T07:40:07;7.60;;;5.10;;
5704;SDS011;2877;48.238;11.160;2023-08-20T07:42:34;8.90;;;4.80;;
5704;SDS011;2877;48.238;11.160;2023-08-20T07:45:00;7.97;;;4.70;;
5704;SDS011;2877;48.238;11.160;2023-08-20T07:47:26;6.77;;;4.70;;
5704;SDS011;2877;48.238;11.160;2023-08-20T07:49:53;6.77;;;4.67;;
5704;SDS011;2877;48.238;11.160;2023-08-20T07:52:19;6.87;;;4.70;;
5704;SDS011;2877;48.238;11.160;2023-08-20T07:54:45;14.33;;;5.07;;
5704;SDS011;2877;48.238;11.160;2023-08-20T07:57:10;6.90;;;4.63;;
5704;SDS011;2877;48.238;11.160;2023-08-20T07:59:37;8.40;;;4.83;;
5704;SDS011;2877;48.238;11.160;2023-08-20T08:02:03;7.70;;;5.60;;
5704;SDS011;2877;48.238;11.160;2023-08-20T08:04:28;12.63;;;5.00;;
5704;SDS011;2877;48.238;11.160;2023-08-20T08:06:54;11.17;;;4.77;;
5704;SDS011;2877;48.238;11.160;2023-08-20T08:09:30;8.03;;;5.07;;
5704;SDS011;2877;48.238;11.160;2023-08-20T08:11:57;6.83;;;4.60;;
5704;SDS011;2877;48.238;11.160;2023-08-20T08:14:23;7.07;;;4.53;;
5704;SDS011;2877;48.238;11.160;2023-08-20T08:16:49;10.53;;;4.20;;
5704;SDS011;2877;48.238;11.160;2023-08-20T08:19:15;7.03;;;3.97;;
5704;SDS011;2877;48.238;11.160;2023-08-20T08:21:42;7.47;;;4.13;;
5704;SDS011;2877;48.238;11.160;2023-08-20T08:24:08;6.10;;;4.07;;
5704;SDS011;2877;48.238;11.160;2023-08-20T08:26:34;5.60;;;4.13;;
5704;SDS011;2877;48.238;11.160;2023-08-20T08:29:01;7.13;;;4.37;;
5704;SDS011;2877;48.238;11.160;2023-08-20T08:31:30;7.87;;;4.17;;
5704;SDS011;2877;48.238;11.160;2023-08-20T08:33:56;6.80;;;3.60;;
5704;SDS011;2877;48.238;11.160;2023-08-20T08:36:22;5.30;;;3.77;;
5704;SDS011;2877;48.238;11.160;2023-08-20T08:38:49;7.87;;;3.83;;
5704;SDS011;2877;48.238;11.160;2023-08-20T08:41:15;11.67;;;3.80;;
5704;SDS011;2877;48.238;11.160;2023-08-20T08:43:41;11.30;;;4.17;;
5704;SDS011;2877;48.238;11.160;2023-08-20T08:46:08;8.07;;;3.93;;
5704;SDS011;2877;48.238;11.160;2023-08-20T08:48:38;6.57;;;3.90;;
5704;SDS011;2877;48.238;11.160;2023-08-20T08:51:06;8.50;;;3.90;;
5704;SDS011;2877;48.238;11.160;2023-08-20T08:53:32;4.33;;;3.43;;
5704;SDS011;2877;48.238;11.160;2023-08-20T08:55:58;15.33;;;4.57;;
5704;SDS011;2877;48.238;11.160;2023-08-20T08:58:24;6.63;;;3.73;;
5704;SDS011;2877;48.238;11.160;2023-08-20T09:00:50;7.13;;;3.47;;
5704;SDS011;2877;48.238;11.160;2023-08-20T09:03:16;8.07;;;3.50;;
5704;SDS011;2877;48.238;11.160;2023-08-20T09:05:54;7.30;;;4.17;;
5704;SDS011;2877;48.238;11.160;2023-08-20T09:08:21;6.80;;;4.50;;
5704;SDS011;2877;48.238;11.160;2023-08-20T09:10:57;6.73;;;3.37;;
5704;SDS011;2877;48.238;11.160;2023-08-20T09:13:25;4.77;;;3.50;;
5704;SDS011;2877;48.238;11.160;2023-08-20T09:15:57;5.03;;;3.70;;
5704;SDS011;2877;48.238;11.160;2023-08-20T09:18:22;4.13;;;3.17;;
5704;SDS011;2877;48.238;11.160;2023-08-20T09:20:48;5.37;;;3.53;;
5704;SDS011;2877;48.238;11.160;2023-08-20T09:23:14;5.10;;;3.10;;
5704;SDS011;2877;48.238;11.160;2023-08-20T09:25:41;5.90;;;3.30;;
5704;SDS011;2877;48.238;11.160;2023-08-20T09:28:08;13.40;;;3.90;;
5704;SDS011;2877;48.238;11.160;2023-08-20T09:30:34;6.70;;;3.53;;
5704;SDS011;2877;48.238;11.160;2023-08-20T09:33:18;7.33;;;3.53;;
5704;SDS011;2877;48.238;11.160;2023-08-20T09:35:50;7.27;;;3.50;;
5704;SDS011;2877;48.238;11.160;2023-08-20T09:38:18;4.20;;;3.80;;
5704;SDS011;2877;48.238;11.160;2023-08-20T09:40:47;8.87;;;3.53;;
5704;SDS011;2877;48.238;11.160;2023-08-20T09:43:15;4.57;;;3.70;;
5704;SDS011;2877;48.238;11.160;2023-08-20T09:45:42;4.77;;;3.30;;
5704;SDS011;2877;48.238;11.160;2023-08-20T09:48:08;7.17;;;3.47;;
5704;SDS011;2877;48.238;11.160;2023-08-20T09:50:36;7.53;;;3.63;;
5704;SDS011;2877;48.238;11.160;2023-08-20T09:53:06;4.70;;;3.63;;
5704;SDS011;2877;48.238;11.160;2023-08-20T09:55:40;8.90;;;4.40;;
5704;SDS011;2877;48.238;11.160;2023-08-20T09:58:07;11.80;;;4.30;;
5704;SDS011;2877;48.238;11.160;2023-08-20T10:00:34;5.90;;;4.00;;
5704;SDS011;2877;48.238;11.160;2023-08-20T10:03:00;4.27;;;3.53;;
5704;SDS011;2877;48.238;11.160;2023-08-20T10:05:27;7.40;;;4.30;;
5704;SDS011;2877;48.238;11.160;2023-08-20T10:07:53;6.73;;;3.90;;
5704;SDS011;2877;48.238;11.160;2023-08-20T10:10:20;10.93;;;4.10;;
5704;SDS011;2877;48.238;11.160;2023-08-20T10:12:46;6.03;;;3.60;;
5704;SDS011;2877;48.238;11.160;2023-08-20T10:15:13;5.43;;;4.10;;
5704;SDS011;2877;48.238;11.160;2023-08-20T10:17:41;7.80;;;3.43;;
5704;SDS011;2877;48.238;11.160;2023-08-20T10:20:08;4.87;;;3.97;;
5704;SDS011;2877;48.238;11.160;2023-08-20T10:22:38;5.40;;;3.40;;
5704;SDS011;2877;48.238;11.160;2023-08-20T10:25:08;9.23;;;4.93;;
5704;SDS011;2877;48.238;11.160;2023-08-20T10:27:36;6.47;;;4.27;;
5704;SDS011;2877;48.238;11.160;2023-08-20T10:30:10;5.43;;;3.87;;
5704;SDS011;2877;48.238;11.160;2023-08-20T10:32:48;11.77;;;6.37;;
5704;SDS011;2877;48.238;11.160;2023-08-20T10:35:23;5.20;;;3.43;;
5704;SDS011;2877;48.238;11.160;2023-08-20T10:38:04;5.10;;;3.60;;
5704;SDS011;2877;48.238;11.160;2023-08-20T10:40:54;4.10;;;3.60;;
5704;SDS011;2877;48.238;11.160;2023-08-20T10:43:34;8.37;;;4.10;;
5704;SDS011;2877;48.238;11.160;2023-08-20T10:46:08;4.23;;;3.50;;
5704;SDS011;2877;48.238;11.160;2023-08-20T10:48:39;9.40;;;3.30;;
5704;SDS011;2877;48.238;11.160;2023-08-20T10:51:09;5.53;;;3.93;;
5704;SDS011;2877;48.238;11.160;2023-08-20T10:53:39;6.90;;;3.87;;
5704;SDS011;2877;48.238;11.160;2023-08-20T10:56:10;6.37;;;4.77;;
5704;SDS011;2877;48.238;11.160;2023-08-20T10:58:41;4.80;;;3.97;;
5704;SDS011;2877;48.238;11.160;2023-08-20T11:01:21;8.27;;;4.00;;
5704;SDS011;2877;48.238;11.160;2023-08-20T11:03:48;8.67;;;4.30;;
5704;SDS011;2877;48.238;11.160;2023-08-20T11:06:15;4.67;;;3.97;;
5704;SDS011;2877;48.238;11.160;2023-08-20T11:08:41;7.00;;;4.13;;
5704;SDS011;2877;48.238;11.160;2023-08-20T11:11:07;9.37;;;4.03;;
5704;SDS011;2877;48.238;11.160;2023-08-20T11:13:34;6.43;;;3.70;;
5704;SDS011;2877;48.238;11.160;2023-08-20T11:16:01;5.63;;;4.00;;
5704;SDS011;2877;48.238;11.160;2023-08-20T11:18:27;5.20;;;3.70;;
5704;SDS011;2877;48.238;11.160;2023-08-20T11:20:53;8.60;;;3.53;;
5704;SDS011;2877;48.238;11.160;2023-08-20T11:23:20;6.03;;;3.70;;
5704;SDS011;2877;48.238;11.160;2023-08-20T11:25:45;7.03;;;3.80;;
5704;SDS011;2877;48.238;11.160;2023-08-20T11:28:11;5.27;;;3.70;;
5704;SDS011;2877;48.238;11.160;2023-08-20T11:30:37;8.07;;;4.00;;
5704;SDS011;2877;48.238;11.160;2023-08-20T11:33:03;8.47;;;3.70;;
5704;SDS011;2877;48.238;11.160;2023-08-20T11:35:30;5.03;;;3.13;;
5704;SDS011;2877;48.238;11.160;2023-08-20T11:37:56;6.73;;;3.50;;
5704;SDS011;2877;48.238;11.160;2023-08-20T11:40:23;7.03;;;3.57;;
5704;SDS011;2877;48.238;11.160;2023-08-20T11:42:48;4.27;;;3.43;;
5704;SDS011;2877;48.238;11.160;2023-08-20T11:45:14;5.73;;;3.30;;
5704;SDS011;2877;48.238;11.160;2023-08-20T11:47:40;13.17;;;4.30;;
5704;SDS011;2877;48.238;11.160;2023-08-20T11:50:07;4.33;;;3.10;;
5704;SDS011;2877;48.238;11.160;2023-08-20T11:52:34;5.60;;;3.37;;
5704;SDS011;2877;48.238;11.160;2023-08-20T11:55:01;5.90;;;3.27;;
5704;SDS011;2877;48.238;11.160;2023-08-20T11:57:28;7.80;;;3.07;;
5704;SDS011;2877;48.238;11.160;2023-08-20T11:59:54;10.73;;;3.67;;
5704;SDS011;2877;48.238;11.160;2023-08-20T12:02:27;6.40;;;3.57;;
5704;SDS011;2877;48.238;11.160;2023-08-20T12:04:55;7.83;;;3.60;;
5704;SDS011;2877;48.238;11.160;2023-08-20T12:07:25;3.77;;;3.40;;
5704;SDS011;2877;48.238;11.160;2023-08-20T12:09:54;7.43;;;2.90;;
5704;SDS011;2877;48.238;11.160;2023-08-20T12:12:20;7.57;;;3.00;;
5704;SDS011;2877;48.238;11.160;2023-08-20T12:14:46;5.47;;;3.13;;
5704;SDS011;2877;48.238;11.160;2023-08-20T12:17:16;3.27;;;2.87;;
5704;SDS011;2877;48.238;11.160;2023-08-20T12:19:43;3.07;;;2.87;;
5704;SDS011;2877;48.238;11.160;2023-08-20T12:22:08;5.47;;;2.63;;
5704;SDS011;2877;48.238;11.160;2023-08-20T12:24:34;3.73;;;2.77;;
5704;SDS011;2877;48.238;11.160;2023-08-20T12:26:59;4.13;;;2.90;;
5704;SDS011;2877;48.238;11.160;2023-08-20T12:29:25;9.30;;;3.07;;
5704;SDS011;2877;48.238;11.160;2023-08-20T12:31:51;6.00;;;2.67;;
5704;SDS011;2877;48.238;11.160;2023-08-20T12:34:16;3.33;;;2.70;;
5704;SDS011;2877;48.238;11.160;2023-08-20T12:36:42;4.17;;;2.50;;
5704;SDS011;2877;48.238;11.160;2023-08-20T12:39:08;4.33;;;2.47;;
5704;SDS011;2877;48.238;11.160;2023-08-20T12:41:33;6.20;;;2.77;;
5704;SDS011;2877;48.238;11.160;2023-08-20T12:44:01;3.07;;;2.50;;
5704;SDS011;2877;48.238;11.160;2023-08-20T12:46:27;5.57;;;2.40;;
5704;SDS011;2877;48.238;11.160;2023-08-20T12:48:52;4.77;;;2.40;;
5704;SDS011;2877;48.238;11.160;2023-08-20T12:51:18;6.45;;;2.35;;
5704;SDS011;2877;48.238;11.160;2023-08-20T12:53:43;6.22;;;2.55;;
5704;SDS011;2877;48.238;11.160;2023-08-20T12:56:09;4.15;;;2.33;;
5704;SDS011;2877;48.238;11.160;2023-08-20T12:58:35;5.03;;;2.30;;
5704;SDS011;2877;48.238;11.160;2023-08-20T13:01:00;2.13;;;1.92;;
5704;SDS011;2877;48.238;11.160;2023-08-20T13:03:27;3.20;;;2.00;;
5704;SDS011;2877;48.238;11.160;2023-08-20T13:05:53;4.78;;;2.35;;
5704;SDS011;2877;48.238;11.160;2023-08-20T13:08:21;7.68;;;1.90;;
5704;SDS011;2877;48.238;11.160;2023-08-20T13:10:50;3.10;;;2.28;;
5704;SDS011;2877;48.238;11.160;2023-08-20T13:13:22;2.88;;;2.00;;
5704;SDS011;2877;48.238;11.160;2023-08-20T13:15:49;3.35;;;1.83;;
5704;SDS011;2877;48.238;11.160;2023-08-20T13:18:16;1.70;;;1.60;;
5704;SDS011;2877;48.238;11.160;2023-08-20T13:20:41;3.22;;;2.00;;
5704;SDS011;2877;48.238;11.160;2023-08-20T13:23:08;2.53;;;2.17;;
5704;SDS011;2877;48.238;11.160;2023-08-20T13:25:34;5.43;;;2.10;;
5704;SDS011;2877;48.238;11.160;2023-08-20T13:27:59;3.50;;;1.70;;
5704;SDS011;2877;48.238;11.160;2023-08-20T13:30:25;2.97;;;1.65;;
5704;SDS011;2877;48.238;11.160;2023-08-20T13:32:50;2.80;;;1.50;;
5704;SDS011;2877;48.238;11.160;2023-08-20T13:35:16;2.25;;;1.50;;
5704;SDS011;2877;48.238;11.160;2023-08-20T13:37:41;5.22;;;2.30;;
5704;SDS011;2877;48.238;11.160;2023-08-20T13:40:07;2.90;;;2.10;;
5704;SDS011;2877;48.238;11.160;2023-08-20T13:42:35;3.22;;;1.88;;
5704;SDS011;2877;48.238;11.160;2023-08-20T13:45:01;2.05;;;1.85;;
5704;SDS011;2877;48.238;11.160;2023-08-20T13:47:26;3.20;;;2.10;;
5704;SDS011;2877;48.238;11.160;2023-08-20T13:49:52;2.88;;;2.20;;
5704;SDS011;2877;48.238;11.160;2023-08-20T13:52:17;3.72;;;2.47;;
5704;SDS011;2877;48.238;11.160;2023-08-20T13:54:43;6.15;;;2.30;;
5704;SDS011;2877;48.238;11.160;2023-08-20T13:57:08;2.55;;;2.13;;
5704;SDS011;2877;48.238;11.160;2023-08-20T13:59:34;2.60;;;2.08;;
5704;SDS011;2877;48.238;11.160;2023-08-20T14:01:59;3.15;;;2.03;;
5704;SDS011;2877;48.238;11.160;2023-08-20T14:04:25;2.80;;;1.88;;
5704;SDS011;2877;48.238;11.160;2023-08-20T14:06:52;2.13;;;2.00;;
5704;SDS011;2877;48.238;11.160;2023-08-20T14:09:17;3.60;;;2.20;;
5704;SDS011;2877;48.238;11.160;2023-08-20T14:11:44;3.42;;;2.10;;
5704;SDS011;2877;48.238;11.160;2023-08-20T14:14:10;4.88;;;2.13;;
5704;SDS011;2877;48.238;11.160;2023-08-20T14:16:35;1.98;;;1.75;;
5704;SDS011;2877;48.238;11.160;2023-08-20T14:19:01;2.30;;;1.90;;
5704;SDS011;2877;48.238;11.160;2023-08-20T14:21:27;4.65;;;2.17;;
5704;SDS011;2877;48.238;11.160;2023-08-20T14:23:52;1.80;;;1.70;;
5704;SDS011;2877;48.238;11.160;2023-08-20T14:26:18;2.42;;;2.00;;
5704;SDS011;2877;48.238;11.160;2023-08-20T14:28:44;3.47;;;1.83;;
5704;SDS011;2877;48.238;11.160;2023-08-20T14:31:09;2.70;;;1.92;;
5704;SDS011;2877;48.238;11.160;2023-08-20T14:33:35;4.30;;;2.10;;
5704;SDS011;2877;48.238;11.160;2023-08-20T14:36:01;3.35;;;1.80;;
5704;SDS011;2877;48.238;11.160;2023-08-20T14:38:30;2.00;;;1.90;;
5704;SDS011;2877;48.238;11.160;2023-08-20T14:40:59;7.25;;;2.30;;
5704;SDS011;2877;48.238;11.160;2023-08-20T14:43:26;2.85;;;2.28;;
5704;SDS011;2877;48.238;11.160;2023-08-20T14:45:51;6.40;;;2.83;;
5704;SDS011;2877;48.238;11.160;2023-08-20T14:48:17;3.20;;;2.73;;
5704;SDS011;2877;48.238;11.160;2023-08-20T14:50:42;5.70;;;3.33;;
5704;SDS011;2877;48.238;11.160;2023-08-20T14:53:08;6.20;;;2.73;;
5704;SDS011;2877;48.238;11.160;2023-08-20T14:55:34;7.17;;;2.67;;
5704;SDS011;2877;48.238;11.160;2023-08-20T14:57:59;5.53;;;3.10;;
5704;SDS011;2877;48.238;11.160;2023-08-20T15:00:25;3.80;;;2.80;;
5704;SDS011;2877;48.238;11.160;2023-08-20T15:02:50;3.33;;;2.73;;